^^
Datos históricos de la estación: Murcia-Puente Tocinos
Diario Informe para Octubre 7, 2019 Unidades:  Métrico    Ingés   Ambas
Diario Semanal Mensual Anual
  Máxima: Mínima: Promedio:
Temperatura: 31.9 °C 18.9 °C 23.8 °C
Punto de rocio: 19.7 °C 8.6 °C 15.7 °C
Humedad: 87% 25% 65%
Velocidad viento: 20.9km/h 2.9km/h 9.5km/h
Racha viento: 37km/h - -
Viento- - SSE
Presión: 1017.1 hPa 1012.4 hPa -
Precipitación: 0.0 mm    
 
 
Tabla de datos para Octubre 7, 2019
Hora Temperatura Punto de rocio Presión Viento Velocidad viento Racha viento Humedad Intensidad lluvia(por hora) Nubes
00:04 21.9 °C 19.6 °C 1015.9 hPa OSO 2.9 km/h 8 km/h 87% 0.0 mm
00:09 21.9 °C 19.6 °C 1015.9 hPa SO 3.1 km/h 8 km/h 87% 0.0 mm
00:14 22 °C 19.7 °C 1015.9 hPa Sur 3.8 km/h 8.4 km/h 87% 0.0 mm
00:19 22 °C 19.6 °C 1015.9 hPa Sur 4 km/h 11.9 km/h 86.5% 0.0 mm
00:24 21.9 °C 19.5 °C 1015.7 hPa Sur 5.8 km/h 11.3 km/h 86% 0.0 mm
00:29 21.9 °C 19.4 °C 1015.7 hPa Sur 6 km/h 11.3 km/h 86% 0.0 mm
00:34 21.8 °C 19.4 °C 1015.7 hPa Sur 6.9 km/h 11.3 km/h 86% 0.0 mm
00:39 21.8 °C 19.3 °C 1015.5 hPa Sur 7 km/h 11.1 km/h 86% 0.0 mm
00:44 21.7 °C 19.3 °C 1015.5 hPa SSO 7.6 km/h 13 km/h 86% 0.0 mm
00:49 21.7 °C 19.3 °C 1015.5 hPa SSO 7.7 km/h 13 km/h 86% 0.0 mm
00:54 21.7 °C 19.3 °C 1015.5 hPa SSO 8.4 km/h 12.9 km/h 86% 0.0 mm
00:59 21.7 °C 19.3 °C 1015.5 hPa SO 7.9 km/h 11.3 km/h 86% 0.0 mm
01:04 21.7 °C 19.3 °C 1015.5 hPa SO 5.8 km/h 10 km/h 86% 0.0 mm
01:09 21.7 °C 19.3 °C 1015.2 hPa SO 6 km/h 11.9 km/h 86% 0.0 mm
01:14 21.7 °C 19.3 °C 1015.2 hPa SO 6.9 km/h 11.3 km/h 86% 0.0 mm
01:19 21.7 °C 19.3 °C 1015.2 hPa SO 7 km/h 11.9 km/h 86% 0.0 mm
01:24 21.8 °C 19.3 °C 1015.1 hPa SO 7.6 km/h 11.3 km/h 86% 0.0 mm
01:29 21.8 °C 19.3 °C 1015.1 hPa SO 7.6 km/h 11.9 km/h 86% 0.0 mm
01:34 21.7 °C 19.1 °C 1015.1 hPa OSO 7.6 km/h 13 km/h 85.1% 0.0 mm
01:39 21.7 °C 19.1 °C 1014.9 hPa OSO 7.6 km/h 13 km/h 85% 0.0 mm
01:44 21.6 °C 18.9 °C 1014.9 hPa OSO 7.6 km/h 13.7 km/h 85% 0.0 mm
01:49 21.5 °C 18.9 °C 1014.9 hPa Oeste 7.5 km/h 14.5 km/h 85% 0.0 mm
01:54 21.3 °C 18.7 °C 1014.8 hPa OSO 6.9 km/h 11.1 km/h 85.1% 0.0 mm
01:59 21.3 °C 18.9 °C 1014.8 hPa OSO 6.7 km/h 11.3 km/h 86% 0.0 mm
02:04 21.3 °C 18.9 °C 1014.8 hPa OSO 5.8 km/h 9.3 km/h 86% 0.0 mm
02:09 21.3 °C 18.9 °C 1014.8 hPa OSO 5.6 km/h 9.7 km/h 86% 0.0 mm
02:14 21.3 °C 18.9 °C 1014.8 hPa SO 5 km/h 9.7 km/h 86% 0.0 mm
02:19 21.3 °C 18.9 °C 1014.9 hPa SO 4.8 km/h 8 km/h 86% 0.0 mm
02:24 21.3 °C 18.9 °C 1014.9 hPa SO 3.9 km/h 10 km/h 86% 0.0 mm
02:29 21.3 °C 18.9 °C 1014.9 hPa SO 4.3 km/h 9.7 km/h 86% 0.0 mm
02:34 21.3 °C 18.9 °C 1014.9 hPa SO 6.4 km/h 9.7 km/h 86% 0.0 mm
02:39 21.4 °C 18.9 °C 1014.8 hPa SO 6.3 km/h 9.7 km/h 86% 0.0 mm
02:44 21.4 °C 18.9 °C 1014.8 hPa SO 5.8 km/h 8.4 km/h 86% 0.0 mm
02:49 21.4 °C 18.9 °C 1014.8 hPa OSO 5.6 km/h 8 km/h 85.7% 0.0 mm
02:54 21.3 °C 18.7 °C 1014.8 hPa Sur 4.7 km/h 8 km/h 85% 0.0 mm
02:59 21.2 °C 18.8 °C 1014.8 hPa SSO 4.9 km/h 9.3 km/h 85.9% 0.0 mm
03:04 21.2 °C 18.8 °C 1014.8 hPa SSO 5.8 km/h 9.7 km/h 86% 0.0 mm
03:09 21.1 °C 18.7 °C 1014.6 hPa SSO 5.9 km/h 9.7 km/h 86% 0.0 mm
03:14 21.1 °C 18.6 °C 1014.6 hPa SSO 6.4 km/h 10 km/h 86% 0.0 mm
03:19 21 °C 18.5 °C 1014.6 hPa SO 6.5 km/h 9.7 km/h 86% 0.0 mm
03:24 20.9 °C 18.5 °C 1014.6 hPa SO 6.5 km/h 10 km/h 86% 0.0 mm
03:29 20.9 °C 18.4 °C 1014.6 hPa SO 6.5 km/h 10 km/h 86% 0.0 mm
03:34 20.8 °C 18.4 °C 1014.6 hPa SSO 6.5 km/h 14.8 km/h 86% 0.0 mm
03:39 20.8 °C 18.4 °C 1014.3 hPa SO 6.6 km/h 14.5 km/h 86% 0.0 mm
03:44 20.7 °C 18.3 °C 1014.2 hPa SO 7.6 km/h 11.3 km/h 86% 0.0 mm
03:49 20.7 °C 18.3 °C 1014.2 hPa OSO 7.3 km/h 9.7 km/h 86% 0.0 mm
03:54 20.6 °C 18.2 °C 1014.1 hPa SO 5.8 km/h 8 km/h 86% 0.0 mm
03:59 20.6 °C 18.3 °C 1014.1 hPa SO 5.6 km/h 9.5 km/h 86.9% 0.0 mm
04:04 20.6 °C 18.3 °C 1014.1 hPa SO 5 km/h 9.7 km/h 87% 0.0 mm
04:09 20.5 °C 18.3 °C 1013.9 hPa SSO 5.1 km/h 10 km/h 87% 0.0 mm
04:14 20.4 °C 18 °C 1013.9 hPa SO 5.8 km/h 10 km/h 86.1% 0.0 mm
04:19 20.4 °C 18 °C 1013.9 hPa SO 5.9 km/h 11.9 km/h 86% 0.0 mm
04:24 20.4 °C 17.8 °C 1013.8 hPa SO 6.4 km/h 13.7 km/h 85.3% 0.0 mm
04:29 20.3 °C 17.7 °C 1013.8 hPa SSO 6.6 km/h 14.5 km/h 85% 0.0 mm
04:34 20.3 °C 17.7 °C 1013.8 hPa SO 7.6 km/h 14.5 km/h 85% 0.0 mm
04:39 20.3 °C 17.7 °C 1013.8 hPa SO 7.4 km/h 13 km/h 85% 0.0 mm
04:44 20.3 °C 17.5 °C 1013.8 hPa SO 6.5 km/h 11.3 km/h 84.1% 0.0 mm
04:49 20.3 °C 17.5 °C 1013.8 hPa SO 6.4 km/h 11.3 km/h 84% 0.0 mm
04:54 20.3 °C 17.5 °C 1013.6 hPa SSO 5.8 km/h 8 km/h 84% 0.0 mm
04:59 20.3 °C 17.5 °C 1013.6 hPa SO 5.4 km/h 8 km/h 84% 0.0 mm
05:04 20.3 °C 17.5 °C 1014.0 hPa Oeste 3.9 km/h 9.5 km/h 84% 0.0 mm
05:09 20.2 °C 17.4 °C 1014.0 hPa Oeste 4 km/h 9.7 km/h 84% 0.0 mm
05:14 20.2 °C 17.4 °C 1014.0 hPa OSO 4.7 km/h 10.3 km/h 84% 0.0 mm
05:19 19.9 °C 17.2 °C 1014.0 hPa OSO 4.8 km/h 11.9 km/h 84% 0.0 mm
05:24 19.8 °C 17 °C 1013.9 hPa SO 5.8 km/h 14.8 km/h 84% 0.0 mm
05:29 19.7 °C 16.9 °C 1013.8 hPa SO 6.2 km/h 14.5 km/h 83.5% 0.0 mm
05:34 19.7 °C 16.7 °C 1013.8 hPa SO 8.4 km/h 12.9 km/h 83% 0.0 mm
05:39 19.7 °C 16.7 °C 1013.5 hPa SO 8 km/h 9.7 km/h 82.5% 0.0 mm
05:44 19.8 °C 16.5 °C 1013.5 hPa SO 5.8 km/h 11.1 km/h 81.5% 0.0 mm
05:49 19.8 °C 16.4 °C 1013.6 hPa SSO 6 km/h 11.3 km/h 80.9% 0.0 mm
05:54 19.8 °C 16.1 °C 1013.6 hPa SO 6.9 km/h 11.9 km/h 79.6% 0.0 mm
05:59 19.8 °C 15.9 °C 1013.6 hPa SO 7.2 km/h 14.8 km/h 78.4% 0.0 mm
06:04 19.9 °C 15.9 °C 1013.6 hPa SO 8.4 km/h 14.5 km/h 78% 0.0 mm
06:09 19.9 °C 15.9 °C 1013.5 hPa SO 8.1 km/h 12.9 km/h 78% 0.0 mm
06:14 19.9 °C 15.9 °C 1013.5 hPa SO 6.9 km/h 11.1 km/h 78% 0.0 mm
06:19 19.9 °C 15.9 °C 1013.5 hPa SO 6.8 km/h 11.3 km/h 78% 0.0 mm
06:24 19.9 °C 15.9 °C 1013.5 hPa OSO 5.8 km/h 11.3 km/h 78% 0.0 mm
06:29 19.9 °C 15.9 °C 1013.5 hPa SO 5.6 km/h 8 km/h 78% 0.0 mm
06:34 19.8 °C 15.8 °C 1013.5 hPa SSO 5 km/h 8 km/h 78% 0.0 mm
06:39 19.8 °C 15.8 °C 1013.5 hPa SSE 5 km/h 11.9 km/h 78% 0.0 mm
06:44 19.6 °C 15.8 °C 1013.5 hPa Sur 5 km/h 11.3 km/h 78.6% 0.0 mm
06:49 19.4 °C 15.8 °C 1013.6 hPa SO 5.3 km/h 11.9 km/h 79.9% 0.0 mm
06:54 19.4 °C 15.9 °C 1013.6 hPa SSO 6.9 km/h 11.9 km/h 80.2% 0.0 mm
06:59 19.5 °C 16 °C 1013.6 hPa SO 6.9 km/h 15.6 km/h 80% 0.0 mm
07:04 19.6 °C 16 °C 1013.6 hPa SO 6.9 km/h 16.1 km/h 79.9% 0.0 mm
07:09 19.7 °C 15.9 °C 1013.5 hPa SO 7.2 km/h 16.1 km/h 78.9% 0.0 mm
07:14 19.7 °C 15.7 °C 1013.5 hPa SO 8.4 km/h 17.2 km/h 77.4% 0.0 mm
07:19 19.8 °C 15.5 °C 1013.5 hPa SO 8.1 km/h 17.7 km/h 76.1% 0.0 mm
07:24 19.8 °C 15.1 °C 1013.5 hPa SO 6.9 km/h 9.7 km/h 74.4% 0.0 mm
07:29 19.9 °C 15 °C 1013.5 hPa SSO 6.8 km/h 11.1 km/h 73.6% 0.0 mm
07:34 19.9 °C 15.2 °C 1013.6 hPa SSE 5.8 km/h 11.3 km/h 74.4% 0.0 mm
07:39 19.8 °C 15.4 °C 1013.6 hPa Sur 6 km/h 13 km/h 76% 0.0 mm
07:44 19.6 °C 15.4 °C 1013.6 hPa Sur 6.9 km/h 13.7 km/h 77% 0.0 mm
07:49 19.4 °C 15.3 °C 1013.8 hPa Sur 7.1 km/h 14.8 km/h 77% 0.0 mm
07:54 19.3 °C 15.2 °C 1013.8 hPa Sur 8.4 km/h 14.5 km/h 77% 0.0 mm
07:59 19.3 °C 15.2 °C 1013.8 hPa Sur 7.6 km/h 11.3 km/h 77% 0.0 mm
08:04 19.3 °C 15 °C 1013.9 hPa ESE 4.7 km/h 7.4 km/h 76.1% 0.0 mm
08:09 19.2 °C 14.9 °C 1013.9 hPa ESE 4.7 km/h 9.3 km/h 76% 0.0 mm
08:14 19 °C 14.7 °C 1013.9 hPa SSE 5 km/h 9.7 km/h 76% 0.0 mm
08:19 18.9 °C 14.6 °C 1014.0 hPa SSE 5.1 km/h 9.7 km/h 76% 0.0 mm
08:24 18.9 °C 14.3 °C 1014.0 hPa SSO 5.8 km/h 10 km/h 74.6% 0.0 mm
08:29 19.1 °C 14.2 °C 1014.0 hPa SSO 6 km/h 10 km/h 72.9% 0.0 mm
08:34 19.3 °C 13.9 °C 1014.2 hPa SSO 6.9 km/h 11.1 km/h 71% 0.0 mm
08:39 19.6 °C 13.8 °C 1014.2 hPa SO 6.9 km/h 11.3 km/h 68.9% 0.0 mm
08:44 19.9 °C 13.6 °C 1014.2 hPa OSO 6.9 km/h 11.3 km/h 66.7% 0.0 mm
08:49 20.2 °C 13.3 °C 1014.2 hPa OSO 6.8 km/h 9.7 km/h 64.5% 0.0 mm
08:54 20.5 °C 12.8 °C 1014.2 hPa OSO 5.8 km/h 9.7 km/h 61.2% 0.0 mm
08:59 20.8 °C 12.3 °C 1014.2 hPa Oeste 5.5 km/h 9.7 km/h 58.2% 0.0 mm
09:04 21.2 °C 12.7 °C 1014.4 hPa Sur 4.7 km/h 8.4 km/h 58.6% 0.0 mm
09:09 21.4 °C 13.9 °C 1014.4 hPa SSE 4.7 km/h 9.5 km/h 62.6% 0.0 mm
09:14 21.2 °C 13.2 °C 1014.4 hPa Sur 5 km/h 11.1 km/h 60.4% 0.0 mm
09:19 21.2 °C 13 °C 1014.5 hPa Sur 5.4 km/h 11.9 km/h 59.6% 0.0 mm
09:24 21.4 °C 12.8 °C 1014.5 hPa Sur 7.6 km/h 11.3 km/h 58.3% 0.0 mm
09:29 21.6 °C 12.6 °C 1014.5 hPa SSO 7.5 km/h 11.3 km/h 56.7% 0.0 mm
09:34 21.9 °C 12.3 °C 1014.6 hPa Sur 6.9 km/h 11.3 km/h 54.6% 0.0 mm
09:39 22.2 °C 12.2 °C 1014.6 hPa Sur 7 km/h 13 km/h 53.3% 0.0 mm
09:44 22.4 °C 12.1 °C 1014.6 hPa Sur 7.6 km/h 14 km/h 52.1% 0.0 mm
09:49 22.6 °C 11.8 °C 1014.6 hPa SSO 7.7 km/h 14.8 km/h 50.6% 0.0 mm
09:54 22.7 °C 11.6 °C 1014.5 hPa SO 8.4 km/h 14.5 km/h 49.7% 0.0 mm
09:59 22.8 °C 11.5 °C 1014.5 hPa SO 8.1 km/h 13.7 km/h 49% 0.0 mm
10:04 22.9 °C 11.6 °C 1014.7 hPa SO 6.9 km/h 14.5 km/h 49.1% 0.0 mm
10:09 23 °C 11.7 °C 1014.7 hPa SO 7.2 km/h 14.5 km/h 49% 0.0 mm
10:14 23.1 °C 11.9 °C 1014.7 hPa SO 8.4 km/h 13 km/h 49.4% 0.0 mm
10:19 23.3 °C 12.1 °C 1014.7 hPa SO 8.2 km/h 13 km/h 49.3% 0.0 mm
10:24 23.5 °C 11.9 °C 1014.7 hPa SO 7.6 km/h 12.9 km/h 48.3% 0.0 mm
10:29 23.9 °C 11.1 °C 1014.7 hPa ONO 7.1 km/h 11.9 km/h 44.5% 0.0 mm
10:34 24.5 °C 10.8 °C 1015.0 hPa NO 5 km/h 11.3 km/h 42.1% 0.0 mm
10:39 24.9 °C 10.6 °C 1015.0 hPa Oeste 5.3 km/h 16.7 km/h 40.5% 0.0 mm
10:44 25.3 °C 10.7 °C 1015.0 hPa OSO 6.9 km/h 18.5 km/h 40% 0.0 mm
10:49 25.6 °C 10.7 °C 1015.0 hPa Oeste 7.5 km/h 19.3 km/h 39.3% 0.0 mm
10:54 25.7 °C 10.5 °C 1014.9 hPa Oeste 10 km/h 22.2 km/h 38.5% 0.0 mm
10:59 25.9 °C 10.3 °C 1014.9 hPa Oeste 10.4 km/h 24.1 km/h 37.5% 0.0 mm
11:04 26.1 °C 10.1 °C 1015.1 hPa Oeste 11.9 km/h 26.2 km/h 36.6% 0.0 mm
11:09 26.2 °C 10 °C 1015.1 hPa OSO 12.1 km/h 25.7 km/h 36% 0.0 mm
11:14 26.3 °C 10.1 °C 1015.1 hPa Oeste 13 km/h 20.9 km/h 36% 0.0 mm
11:19 26.5 °C 10.2 °C 1015.1 hPa OSO 12.5 km/h 19.3 km/h 36% 0.0 mm
11:24 26.7 °C 10 °C 1015.1 hPa Oeste 10 km/h 22.2 km/h 35.1% 0.0 mm
11:29 26.8 °C 9.7 °C 1015.1 hPa ONO 10.6 km/h 25.9 km/h 34.2% 0.0 mm
11:34 26.9 °C 9.5 °C 1015.1 hPa ONO 13.7 km/h 33.3 km/h 33.4% 0.0 mm
11:39 26.9 °C 9.6 °C 1015.0 hPa Oeste 14.5 km/h 33.8 km/h 33.8% 0.0 mm
11:44 27.1 °C 9.4 °C 1015.0 hPa Oeste 18.3 km/h 28.2 km/h 33.1% 0.0 mm
11:49 27.2 °C 9.5 °C 1015.0 hPa Oeste 17.6 km/h 27.4 km/h 32.9% 0.0 mm
11:54 27.3 °C 9.5 °C 1014.8 hPa Oeste 14 km/h 22.5 km/h 32.7% 0.0 mm
11:59 27.4 °C 9.2 °C 1014.8 hPa Oeste 14 km/h 22.2 km/h 32% 0.0 mm
12:04 27.6 °C 9.4 °C 1014.8 hPa Oeste 14 km/h 22.5 km/h 32% 0.0 mm
12:09 27.8 °C 9.4 °C 1014.6 hPa Oeste 13.4 km/h 22.5 km/h 31.7% 0.0 mm
12:14 27.9 °C 9.2 °C 1014.6 hPa Oeste 10.3 km/h 27 km/h 31% 0.0 mm
12:19 27.8 °C 9.2 °C 1014.6 hPa Oeste 10.8 km/h 27.8 km/h 31% 0.0 mm
12:24 27.8 °C 9.2 °C 1014.6 hPa Oeste 13 km/h 26.2 km/h 31.1% 0.0 mm
12:29 28 °C 9.4 °C 1014.6 hPa Oeste 13.1 km/h 25.9 km/h 31.2% 0.0 mm
12:34 28.1 °C 9.3 °C 1014.6 hPa Oeste 13.7 km/h 29.6 km/h 31% 0.0 mm
12:39 28.1 °C 9 °C 1014.5 hPa ONO 14.1 km/h 30.6 km/h 30.1% 0.0 mm
12:44 28.2 °C 9.2 °C 1014.5 hPa OSO 16.1 km/h 30.6 km/h 30.4% 0.0 mm
12:49 28.5 °C 9.3 °C 1014.5 hPa OSO 15.4 km/h 25.7 km/h 30.2% 0.0 mm
12:54 28.6 °C 9.3 °C 1014.2 hPa OSO 12.2 km/h 22.5 km/h 30% 0.0 mm
12:59 28.8 °C 9.3 °C 1014.2 hPa SO 11.8 km/h 22.5 km/h 29.6% 0.0 mm
13:04 28.9 °C 9.1 °C 1014.2 hPa SO 10.3 km/h 20.4 km/h 29% 0.0 mm
13:09 29.1 °C 9.2 °C 1014.1 hPa SO 10.6 km/h 20.9 km/h 29% 0.0 mm
13:14 29.2 °C 9.2 °C 1014.1 hPa SSO 11.9 km/h 20.9 km/h 28.9% 0.0 mm
13:19 29.3 °C 9.3 °C 1014.1 hPa OSO 11.8 km/h 18.5 km/h 28.7% 0.0 mm
13:24 29.6 °C 9.3 °C 1013.8 hPa OSO 11.1 km/h 19.3 km/h 28.2% 0.0 mm
13:29 29.8 °C 9.2 °C 1013.8 hPa Oeste 10.8 km/h 19.3 km/h 27.8% 0.0 mm
13:34 29.9 °C 9.4 °C 1013.8 hPa Oeste 9.5 km/h 17.7 km/h 27.9% 0.0 mm
13:39 30.2 °C 9.1 °C 1013.5 hPa OSO 9.3 km/h 20.4 km/h 27% 0.0 mm
13:44 30.3 °C 9 °C 1013.5 hPa ONO 8.4 km/h 20.9 km/h 26.6% 0.0 mm
13:49 30.4 °C 8.8 °C 1013.5 hPa ONO 9 km/h 25.9 km/h 26.1% 0.0 mm
13:54 30.4 °C 8.7 °C 1013.3 hPa ONO 12.2 km/h 25.9 km/h 26% 0.0 mm
13:59 30.7 °C 8.8 °C 1013.3 hPa ONO 12.2 km/h 28.2 km/h 25.7% 0.0 mm
14:04 30.7 °C 8.6 °C 1013.3 hPa ONO 12.2 km/h 27.4 km/h 25.3% 0.0 mm
14:09 30.8 °C 8.8 °C 1013.1 hPa ONO 12.4 km/h 24.1 km/h 25.5% 0.0 mm
14:14 31 °C 8.9 °C 1013.1 hPa ONO 13 km/h 24.1 km/h 25.4% 0.0 mm
14:19 31.1 °C 8.7 °C 1013.1 hPa Oeste 12.8 km/h 24.1 km/h 25% 0.0 mm
14:24 31.1 °C 8.8 °C 1013.0 hPa ONO 11.9 km/h 24.1 km/h 25% 0.0 mm
14:29 31.3 °C 8.9 °C 1013.0 hPa Oeste 12.2 km/h 25.9 km/h 25.1% 0.0 mm
14:34 31.3 °C 8.9 °C 1013.0 hPa ONO 13.7 km/h 25.7 km/h 25% 0.0 mm
14:39 31.3 °C 9 °C 1012.8 hPa NO 14.1 km/h 29.8 km/h 25.1% 0.0 mm
14:44 31.4 °C 9.4 °C 1012.8 hPa ONO 16.4 km/h 30.6 km/h 25.7% 0.0 mm
14:49 31.4 °C 9.1 °C 1012.8 hPa ONO 16 km/h 25.7 km/h 25.2% 0.0 mm
14:54 31.5 °C 9.3 °C 1012.7 hPa Oeste 14 km/h 24.1 km/h 25.3% 0.0 mm
14:59 31.7 °C 9.3 °C 1012.7 hPa Oeste 13.8 km/h 22.2 km/h 25% 0.0 mm
15:04 31.8 °C 9.3 °C 1012.7 hPa Oeste 13 km/h 24.5 km/h 25% 0.0 mm
15:09 31.8 °C 9.4 °C 1012.4 hPa ONO 13 km/h 25.9 km/h 25.1% 0.0 mm
15:14 31.9 °C 10.6 °C 1012.4 hPa NO 13 km/h 29.6 km/h 27.2% 0.0 mm
15:19 31.5 °C 13.2 °C 1012.5 hPa NNE 13.6 km/h 29.6 km/h 32.9% 0.0 mm
15:24 30.9 °C 13.7 °C 1012.5 hPa NNE 16.4 km/h 31.7 km/h 35% 0.0 mm
15:29 30.5 °C 15.7 °C 1012.5 hPa NNE 16.8 km/h 32.2 km/h 40.9% 0.0 mm
15:34 30 °C 16.6 °C 1012.8 hPa NE 19 km/h 35.2 km/h 44.7% 0.0 mm
15:39 29.5 °C 17.1 °C 1012.8 hPa NE 19.3 km/h 35.4 km/h 47.3% 0.0 mm
15:44 29.1 °C 17.6 °C 1012.8 hPa NE 20.9 km/h 35.4 km/h 50% 0.0 mm
15:49 28.8 °C 17.6 °C 1013.1 hPa NE 20.8 km/h 35.4 km/h 51% 0.0 mm
15:54 28.4 °C 17.4 °C 1013.1 hPa NE 20.1 km/h 34.3 km/h 51.4% 0.0 mm
15:59 28.1 °C 17.6 °C 1013.1 hPa NE 19.8 km/h 33.8 km/h 52.9% 0.0 mm
16:04 27.9 °C 17.8 °C 1013.4 hPa NE 18.4 km/h 37 km/h 54% 0.0 mm
16:09 27.7 °C 17.9 °C 1013.4 hPa NE 18.8 km/h 37 km/h 55.1% 0.0 mm
16:14 27.5 °C 18.1 °C 1013.4 hPa NE 20.9 km/h 35.4 km/h 56.6% 0.0 mm
16:19 27.4 °C 18.4 °C 1013.4 hPa NE 20.5 km/h 35.4 km/h 58% 0.0 mm
16:24 27.3 °C 18.6 °C 1013.4 hPa NE 18.4 km/h 33.3 km/h 58.8% 0.0 mm
16:29 27.1 °C 18.6 °C 1013.4 hPa NE 18.6 km/h 33.8 km/h 59.8% 0.0 mm
16:34 26.8 °C 18.6 °C 1013.6 hPa NE 19.8 km/h 35.2 km/h 60.6% 0.0 mm
16:39 26.6 °C 18.7 °C 1013.6 hPa NE 19.5 km/h 35.4 km/h 61.7% 0.0 mm
16:44 26.5 °C 18.8 °C 1013.6 hPa NE 18 km/h 27.4 km/h 62.7% 0.0 mm
16:49 26.5 °C 18.8 °C 1013.6 hPa NE 17.3 km/h 26.2 km/h 63% 0.0 mm
16:54 26.4 °C 18.8 °C 1013.6 hPa NE 13.7 km/h 29.8 km/h 63% 0.0 mm
16:59 26.3 °C 18.7 °C 1013.6 hPa NE 14.4 km/h 30.6 km/h 63.2% 0.0 mm
17:04 26.2 °C 18.8 °C 1013.7 hPa NE 17.2 km/h 30.6 km/h 64% 0.0 mm
17:09 26.2 °C 18.8 °C 1013.7 hPa NE 17.1 km/h 29.6 km/h 64% 0.0 mm
17:14 26.2 °C 18.7 °C 1013.7 hPa NE 16.4 km/h 29.6 km/h 63.4% 0.0 mm
17:19 26 °C 18.6 °C 1013.8 hPa NE 16.7 km/h 30.6 km/h 63.7% 0.0 mm
17:24 25.8 °C 18.5 °C 1013.8 hPa NE 18 km/h 30.6 km/h 64% 0.0 mm
17:29 25.9 °C 18.5 °C 1013.8 hPa NE 18 km/h 27.8 km/h 64% 0.0 mm
17:34 25.7 °C 18.6 °C 1013.8 hPa NE 18 km/h 27.4 km/h 65% 0.0 mm
17:39 25.7 °C 18.7 °C 1013.8 hPa NE 17.2 km/h 25.7 km/h 65.2% 0.0 mm
17:44 25.7 °C 18.6 °C 1013.8 hPa NE 13.1 km/h 24.1 km/h 65.1% 0.0 mm
17:49 25.7 °C 18.6 °C 1013.9 hPa ESE 12.9 km/h 22.2 km/h 64.9% 0.0 mm
17:54 25.8 °C 18.5 °C 1013.9 hPa ESE 11.9 km/h 22.5 km/h 64% 0.0 mm
17:59 25.8 °C 18.4 °C 1013.9 hPa Este 11.9 km/h 20.9 km/h 63.9% 0.0 mm
18:04 25.7 °C 18.5 °C 1014.2 hPa Este 11.9 km/h 22.2 km/h 64.4% 0.0 mm
18:09 25.6 °C 18.5 °C 1014.2 hPa Este 12 km/h 22.5 km/h 65% 0.0 mm
18:14 25.4 °C 18.3 °C 1014.2 hPa ESE 12.2 km/h 22.5 km/h 65% 0.0 mm
18:19 25.3 °C 18.3 °C 1014.4 hPa ESE 12.5 km/h 25.6 km/h 65.4% 0.0 mm
18:24 25.1 °C 18.3 °C 1014.4 hPa ESE 14 km/h 25.9 km/h 65.8% 0.0 mm
18:29 25 °C 18.2 °C 1014.4 hPa Este 14 km/h 24.5 km/h 66% 0.0 mm
18:34 24.9 °C 18.1 °C 1014.7 hPa Este 14 km/h 24.1 km/h 66% 0.0 mm
18:39 24.9 °C 18.2 °C 1014.7 hPa ESE 13.4 km/h 19.3 km/h 66.7% 0.0 mm
18:44 24.8 °C 18.3 °C 1014.7 hPa Este 10.3 km/h 17.7 km/h 67% 0.0 mm
18:49 24.9 °C 18.3 °C 1014.7 hPa ENE 10.1 km/h 16.7 km/h 67% 0.0 mm
18:54 24.9 °C 18.3 °C 1014.7 hPa ENE 8.7 km/h 16.1 km/h 67% 0.0 mm
18:59 24.9 °C 18.1 °C 1014.7 hPa Este 8.5 km/h 16.4 km/h 66.3% 0.0 mm
19:04 24.8 °C 18.3 °C 1014.7 hPa ENE 7.6 km/h 16.7 km/h 67% 0.0 mm
19:09 24.8 °C 18.2 °C 1014.7 hPa ENE 7.8 km/h 16.1 km/h 67% 0.0 mm
19:14 24.7 °C 18.3 °C 1014.7 hPa ENE 8.7 km/h 14.5 km/h 67.8% 0.0 mm
19:19 24.7 °C 18.4 °C 1014.9 hPa ENE 8.5 km/h 15.6 km/h 68% 0.0 mm
19:24 24.6 °C 18.3 °C 1014.9 hPa ENE 7.6 km/h 17.2 km/h 68% 0.0 mm
19:29 24.4 °C 18.3 °C 1014.9 hPa ENE 7.8 km/h 17.7 km/h 68.8% 0.0 mm
19:34 24.3 °C 18.3 °C 1014.9 hPa ENE 8.7 km/h 14.8 km/h 69% 0.0 mm
19:39 24.2 °C 18.2 °C 1014.9 hPa NE 8.6 km/h 14.8 km/h 69% 0.0 mm
19:44 24.1 °C 18.1 °C 1014.9 hPa ENE 8.4 km/h 14.8 km/h 69.4% 0.0 mm
19:49 23.9 °C 18.1 °C 1015.1 hPa ENE 8.2 km/h 14.5 km/h 70% 0.0 mm
19:54 23.9 °C 18.1 °C 1015.1 hPa NE 7.6 km/h 12.9 km/h 70% 0.0 mm
19:59 23.8 °C 18 °C 1015.1 hPa NE 7.7 km/h 14.8 km/h 70.1% 0.0 mm
20:04 23.7 °C 18.1 °C 1015.2 hPa NE 8.4 km/h 19.8 km/h 71% 0.0 mm
20:09 23.6 °C 18.1 °C 1015.2 hPa NE 8.6 km/h 20.9 km/h 71% 0.0 mm
20:14 23.4 °C 18.1 °C 1015.2 hPa NE 10 km/h 17.7 km/h 71.9% 0.0 mm
20:19 23.3 °C 18 °C 1015.4 hPa NE 10.2 km/h 22.2 km/h 72% 0.0 mm
20:24 23.2 °C 17.9 °C 1015.4 hPa NE 11.1 km/h 22.5 km/h 72% 0.0 mm
20:29 23.2 °C 17.9 °C 1015.4 hPa NE 11.4 km/h 22.5 km/h 72.4% 0.0 mm
20:34 23.1 °C 17.9 °C 1015.5 hPa NE 13 km/h 20.9 km/h 72.3% 0.0 mm
20:39 23.1 °C 18 °C 1015.5 hPa NE 13 km/h 19.3 km/h 73% 0.0 mm
20:44 23.1 °C 18 °C 1015.5 hPa NE 13 km/h 22 km/h 73% 0.0 mm
20:49 23 °C 17.9 °C 1015.6 hPa NE 13 km/h 22.5 km/h 73% 0.0 mm
20:54 23 °C 17.9 °C 1015.6 hPa NE 13 km/h 22.5 km/h 73% 0.0 mm
20:59 23 °C 17.9 °C 1015.6 hPa NE 12.4 km/h 19.3 km/h 73% 0.0 mm
21:04 23 °C 17.9 °C 1015.8 hPa NE 9.5 km/h 16.7 km/h 73% 0.0 mm
21:09 22.9 °C 17.8 °C 1015.8 hPa NE 9.5 km/h 18.5 km/h 73% 0.0 mm
21:14 22.9 °C 17.8 °C 1015.8 hPa NE 9.5 km/h 19.3 km/h 73% 0.0 mm
21:19 22.8 °C 17.8 °C 1016.0 hPa NE 9.4 km/h 16.7 km/h 73.4% 0.0 mm
21:24 22.8 °C 17.9 °C 1016.0 hPa NE 8.7 km/h 16.1 km/h 74% 0.0 mm
21:29 22.8 °C 17.9 °C 1016.0 hPa NE 8.9 km/h 17.2 km/h 74% 0.0 mm
21:34 22.8 °C 17.9 °C 1016.1 hPa NE 10 km/h 17.7 km/h 74% 0.0 mm
21:39 22.8 °C 17.9 °C 1016.1 hPa NE 10 km/h 15.6 km/h 74% 0.0 mm
21:44 22.8 °C 17.9 °C 1016.1 hPa NE 10 km/h 16.1 km/h 74% 0.0 mm
21:49 22.8 °C 17.9 °C 1016.2 hPa NE 9.7 km/h 13 km/h 74% 0.0 mm
21:54 22.8 °C 17.9 °C 1016.2 hPa NE 8.4 km/h 14.8 km/h 74% 0.0 mm
21:59 22.8 °C 17.9 °C 1016.2 hPa NE 8.6 km/h 14.8 km/h 74% 0.0 mm
22:04 22.8 °C 17.9 °C 1016.3 hPa NNE 9.5 km/h 14.5 km/h 74% 0.0 mm
22:09 22.7 °C 17.9 °C 1016.3 hPa NNE 9 km/h 13 km/h 74% 0.0 mm
22:14 22.7 °C 17.8 °C 1016.3 hPa NE 6.9 km/h 13 km/h 74% 0.0 mm
22:19 22.7 °C 17.8 °C 1016.5 hPa NE 7.2 km/h 14.8 km/h 74% 0.0 mm
22:24 22.7 °C 17.8 °C 1016.5 hPa NE 8.4 km/h 14.5 km/h 74% 0.0 mm
22:29 22.7 °C 17.8 °C 1016.5 hPa NE 8.1 km/h 13 km/h 74% 0.0 mm
22:34 22.6 °C 17.7 °C 1016.7 hPa NE 6.9 km/h 14.8 km/h 74% 0.0 mm
22:39 22.6 °C 17.7 °C 1016.7 hPa NE 7.2 km/h 14.8 km/h 74% 0.0 mm
22:44 22.6 °C 17.7 °C 1016.7 hPa NE 8.7 km/h 14.5 km/h 74% 0.0 mm
22:49 22.6 °C 17.7 °C 1016.7 hPa NE 8.4 km/h 12.2 km/h 74% 0.0 mm
22:54 22.5 °C 17.6 °C 1016.7 hPa NE 6.9 km/h 13 km/h 74% 0.0 mm
22:59 22.4 °C 17.7 °C 1016.7 hPa NE 7.1 km/h 12.9 km/h 74.7% 0.0 mm
23:04 22.4 °C 17.7 °C 1016.8 hPa NE 7.6 km/h 13.7 km/h 75% 0.0 mm
23:09 22.3 °C 17.7 °C 1016.8 hPa NE 7.7 km/h 14.5 km/h 75% 0.0 mm
23:14 22.3 °C 17.7 °C 1016.8 hPa NE 8.4 km/h 13.7 km/h 75% 0.0 mm
23:19 22.2 °C 17.6 °C 1016.9 hPa NE 8.4 km/h 15.6 km/h 75% 0.0 mm
23:24 22.2 °C 17.6 °C 1016.9 hPa NE 8.7 km/h 16.1 km/h 75.2% 0.0 mm
23:29 22.1 °C 17.7 °C 1016.9 hPa NE 8.5 km/h 11.9 km/h 75.9% 0.0 mm
23:34 22.1 °C 17.6 °C 1016.9 hPa NE 7.6 km/h 11.3 km/h 76% 0.0 mm
23:39 21.9 °C 17.5 °C 1016.9 hPa NE 7.6 km/h 11.9 km/h 76% 0.0 mm
23:44 21.9 °C 17.5 °C 1016.9 hPa NE 7.6 km/h 14.8 km/h 76% 0.0 mm
23:49 21.8 °C 17.5 °C 1017.1 hPa NE 7.8 km/h 16.7 km/h 76.5% 0.0 mm
23:54 21.7 °C 17.5 °C 1017.1 hPa NE 8.7 km/h 16.7 km/h 77% 0.0 mm
23:59 21.7 °C 17.5 °C 1017.1 hPa NE 8.6 km/h 16.1 km/h 77% 0.0 mm
Murcia-Puente Tocinos, España
Compliments of Weather Underground - 2.75 mb

La estación de MeteoMurcia.com, publica sus datos en los siguientes proyectos:

Weather Underground PWS IMURCIAP2 Meteoclimatic www.awekas.at

W3Counter
Web Analytics